createdAt,value
2022-08-19T00:00:51.336Z,81.13
2022-08-19T00:05:52.919Z,81.47
2022-08-19T00:10:54.377Z,82.58
2022-08-19T00:15:56.951Z,82.91
2022-08-19T00:20:58.959Z,83.18
2022-08-19T00:26:00.380Z,83.74
2022-08-19T00:31:03.017Z,84.19
2022-08-19T00:36:08.604Z,84.99
2022-08-19T00:41:15.583Z,84.95
2022-08-19T00:46:17.060Z,85.01
2022-08-19T00:51:18.788Z,85.10
2022-08-19T00:56:20.458Z,85.34
2022-08-19T01:01:22.139Z,85.69
2022-08-19T01:06:24.530Z,86.51
2022-08-19T01:11:27.881Z,87.21
2022-08-19T01:16:31.049Z,88.03
2022-08-19T01:21:48.390Z,88.28
2022-08-19T01:26:50.039Z,88.56
2022-08-19T01:31:53.535Z,88.75
2022-08-19T01:36:55.136Z,88.89
2022-08-19T01:41:56.803Z,88.74
2022-08-19T01:46:58.430Z,89.29
2022-08-19T01:52:01.908Z,89.17
2022-08-19T01:57:09.408Z,88.78
2022-08-19T02:02:11.421Z,88.96
2022-08-19T02:07:12.998Z,89.70
2022-08-19T02:12:15.546Z,89.87
2022-08-19T02:17:16.969Z,90.10
2022-08-19T02:22:18.410Z,90.25
2022-08-19T02:27:20.263Z,90.64
2022-08-19T02:32:21.806Z,90.73
2022-08-19T02:37:41.782Z,90.85
2022-08-19T02:42:43.678Z,91.48
2022-08-19T02:47:45.338Z,91.39
2022-08-19T02:52:46.838Z,91.12
2022-08-19T02:57:48.972Z,91.07
2022-08-19T03:02:50.746Z,90.92
2022-08-19T03:07:52.268Z,91.13
2022-08-19T03:12:53.888Z,91.54
2022-08-19T03:17:55.579Z,91.71
2022-08-19T03:22:58.845Z,91.65
2022-08-19T03:28:00.279Z,91.12
2022-08-19T03:33:02.846Z,91.34
2022-08-19T03:38:07.583Z,91.98
2022-08-19T03:43:09.373Z,92.65
2022-08-19T03:48:10.805Z,93.76
2022-08-19T03:53:12.281Z,93.83
2022-08-19T03:58:13.736Z,93.95
2022-08-19T04:03:15.643Z,94.15
2022-08-19T04:08:21.149Z,94.74
2022-08-19T04:13:23.039Z,95.15
2022-08-19T04:18:24.973Z,95.37
2022-08-19T04:23:26.632Z,95.94
2022-08-19T04:28:31.050Z,96.45
2022-08-19T04:33:33.096Z,96.33
2022-08-19T04:38:34.862Z,96.77
2022-08-19T04:43:39.066Z,97.34
2022-08-19T04:48:44.916Z,97.66
2022-08-19T04:53:51.245Z,96.85
2022-08-19T04:58:53.527Z,96.93
2022-08-19T05:03:55.807Z,97.44
2022-08-19T05:08:57.265Z,97.60
2022-08-19T05:13:58.836Z,98.13
2022-08-19T05:19:19.202Z,98.47
2022-08-19T05:24:21.948Z,98.14
2022-08-19T05:29:25.840Z,97.88
2022-08-19T05:34:28.351Z,97.43
2022-08-19T05:39:33.491Z,96.98
2022-08-19T05:44:39.207Z,96.23
2022-08-19T05:49:40.698Z,95.65
2022-08-19T05:54:43.607Z,95.86
2022-08-19T05:59:47.212Z,95.24
2022-08-19T06:04:48.761Z,94.68
2022-08-19T06:09:58.942Z,93.68
2022-08-19T06:15:06.539Z,92.30
2022-08-19T06:20:11.247Z,91.84
2022-08-19T06:25:13.972Z,91.59
2022-08-19T06:30:15.886Z,91.77
2022-08-19T06:35:17.461Z,91.25
2022-08-19T06:40:19.042Z,90.64
2022-08-19T06:45:21.473Z,89.64
2022-08-19T06:50:26.773Z,87.80
2022-08-19T06:55:30.399Z,85.04
2022-08-19T07:00:35.126Z,83.43
2022-08-19T07:05:45.773Z,79.70
2022-08-19T07:10:47.835Z,78.56
2022-08-19T07:15:51.202Z,75.90
2022-08-19T07:21:09.504Z,74.20
2022-08-19T07:26:20.123Z,73.29
2022-08-19T07:31:31.175Z,73.08
2022-08-19T07:36:35.731Z,72.71
2022-08-19T07:41:38.037Z,71.29
2022-08-19T07:46:45.891Z,70.04
2022-08-19T07:51:53.699Z,69.49
2022-08-19T07:56:55.358Z,68.02
2022-08-19T08:02:00.568Z,68.48
2022-08-19T08:07:20.846Z,69.14
2022-08-19T08:12:34.167Z,66.09
2022-08-19T08:17:49.781Z,65.38
2022-08-19T08:23:11.765Z,63.30
2022-08-19T08:28:17.641Z,60.27
2022-08-19T08:33:33.259Z,55.59
2022-08-19T08:38:41.314Z,57.81
2022-08-19T08:43:48.500Z,56.26
2022-08-19T08:49:08.430Z,50.53
2022-08-19T08:54:14.402Z,49.96
2022-08-19T08:59:36.369Z,46.39
2022-08-19T09:04:38.878Z,43.32
2022-08-19T09:09:44.535Z,44.52
2022-08-19T09:15:10.021Z,44.04
2022-08-19T09:20:11.491Z,44.67
2022-08-19T09:25:17.257Z,45.14
2022-08-19T09:30:29.093Z,45.77
2022-08-19T09:35:50.184Z,46.22
2022-08-19T09:40:54.874Z,46.18
2022-08-19T09:45:56.911Z,45.43
2022-08-19T09:51:16.467Z,44.18
2022-08-19T09:56:20.048Z,43.74
2022-08-19T10:01:24.655Z,41.59
2022-08-19T10:06:45.723Z,40.56
2022-08-19T10:11:54.942Z,42.55
2022-08-19T10:16:57.498Z,43.73
2022-08-19T10:22:04.548Z,44.20
2022-08-19T10:27:06.753Z,44.22
2022-08-19T10:32:10.976Z,43.39
2022-08-19T10:37:14.340Z,42.22
2022-08-19T10:42:17.133Z,40.05
2022-08-19T10:47:24.981Z,39.94
2022-08-19T10:52:38.794Z,40.06
2022-08-19T10:58:01.270Z,39.47
2022-08-19T11:03:02.825Z,39.00
2022-08-19T11:08:04.277Z,39.29
2022-08-19T11:13:25.670Z,38.73
2022-08-19T11:18:27.442Z,39.16
2022-08-19T11:23:28.879Z,40.39
2022-08-19T11:28:30.685Z,41.18
2022-08-19T11:33:32.485Z,41.29
2022-08-19T11:38:36.398Z,42.47
2022-08-19T11:43:38.334Z,42.61
2022-08-19T11:48:40.009Z,41.84
2022-08-19T11:53:41.841Z,40.97
2022-08-19T11:58:43.333Z,40.95
2022-08-19T12:03:47.060Z,40.99
2022-08-19T12:08:48.830Z,41.39
2022-08-19T12:13:50.985Z,41.51
2022-08-19T12:18:52.537Z,41.75
2022-08-19T12:23:55.920Z,42.41
2022-08-19T12:28:59.894Z,42.17
2022-08-19T12:34:02.454Z,42.46
2022-08-19T12:39:04.491Z,42.41
2022-08-19T12:44:06.685Z,42.92
2022-08-19T12:49:20.681Z,43.44
2022-08-19T12:54:31.645Z,43.42
2022-08-19T12:59:33.189Z,43.28
2022-08-19T13:04:41.579Z,43.24
2022-08-19T13:09:43.615Z,43.11
2022-08-19T13:14:50.862Z,42.83
2022-08-19T13:19:52.643Z,42.00
2022-08-19T13:24:54.116Z,40.41
2022-08-19T13:30:14.335Z,38.78
2022-08-19T13:35:17.175Z,38.32
2022-08-19T13:40:23.765Z,36.71
2022-08-19T13:45:27.850Z,36.06
2022-08-19T13:50:32.183Z,35.63
2022-08-19T13:55:33.793Z,35.68
2022-08-19T14:00:39.279Z,35.13
2022-08-19T14:05:40.895Z,35.53
2022-08-19T14:10:44.635Z,35.35
2022-08-19T14:15:48.256Z,35.78
2022-08-19T14:20:50.084Z,36.03
2022-08-19T14:25:51.542Z,36.78
2022-08-19T14:30:55.306Z,36.36
2022-08-19T14:35:59.975Z,36.80
2022-08-19T14:41:18.003Z,37.14
2022-08-19T14:46:22.272Z,37.61
2022-08-19T14:51:25.475Z,38.32
2022-08-19T14:56:29.651Z,39.38
2022-08-19T15:01:31.283Z,39.98
2022-08-19T15:06:32.800Z,40.54
2022-08-19T15:11:35.060Z,40.79
2022-08-19T15:16:36.634Z,41.04
2022-08-19T15:21:38.227Z,41.57
2022-08-19T15:26:39.658Z,42.01
2022-08-19T15:31:41.176Z,41.82
2022-08-19T15:36:42.608Z,41.83
2022-08-19T15:41:45.248Z,42.32
2022-08-19T15:46:48.049Z,42.28
2022-08-19T15:51:51.776Z,41.93
2022-08-19T15:57:11.953Z,41.09
2022-08-19T16:02:32.524Z,41.33
2022-08-19T16:07:34.015Z,41.08
2022-08-19T16:12:35.860Z,40.76
2022-08-19T16:17:37.463Z,40.96
2022-08-19T16:22:40.545Z,40.60
2022-08-19T16:27:43.324Z,40.67
2022-08-19T16:33:03.616Z,40.99
2022-08-19T16:38:06.819Z,40.89
2022-08-19T16:43:09.821Z,41.25
2022-08-19T16:48:11.506Z,42.29
2022-08-19T16:53:14.213Z,43.15
2022-08-19T16:58:15.644Z,43.61
2022-08-19T17:03:19.628Z,43.43
2022-08-19T17:08:32.859Z,43.43
2022-08-19T17:13:34.671Z,43.72
2022-08-19T17:18:36.145Z,43.55
2022-08-19T17:23:43.341Z,43.99
2022-08-19T17:28:51.329Z,44.01
2022-08-19T17:33:55.127Z,43.67
2022-08-19T17:38:58.697Z,44.13
2022-08-19T17:44:00.727Z,43.56
2022-08-19T17:49:02.795Z,43.78
2022-08-19T17:54:06.400Z,44.01
2022-08-19T17:59:11.815Z,43.49
2022-08-19T18:04:17.210Z,44.02
2022-08-19T18:09:18.754Z,43.93
2022-08-19T18:14:32.907Z,44.02
2022-08-19T18:19:41.055Z,43.73
2022-08-19T18:24:45.876Z,43.92
2022-08-19T18:29:47.579Z,44.12
2022-08-19T18:34:49.144Z,44.28
2022-08-19T18:40:09.463Z,44.03
2022-08-19T18:45:30.063Z,44.74
2022-08-19T18:50:32.031Z,44.50
2022-08-19T18:55:33.549Z,44.37
2022-08-19T19:00:37.454Z,44.79
2022-08-19T19:05:40.002Z,44.95
2022-08-19T19:10:42.236Z,45.62
2022-08-19T19:15:43.925Z,45.15
2022-08-19T19:20:45.400Z,45.44
2022-08-19T19:25:50.564Z,45.56
2022-08-19T19:30:54.453Z,45.86
2022-08-19T19:35:56.272Z,45.97
2022-08-19T19:40:57.770Z,46.30
2022-08-19T19:45:59.337Z,46.26
2022-08-19T19:51:01.374Z,46.88
2022-08-19T19:56:04.276Z,46.71
2022-08-19T20:01:08.033Z,47.08
2022-08-19T20:06:13.405Z,47.43
2022-08-19T20:11:44.685Z,47.97
2022-08-19T20:16:47.718Z,48.61
2022-08-19T20:21:51.451Z,49.54
2022-08-19T20:26:53.732Z,50.18
2022-08-19T20:31:57.515Z,51.10
2022-08-19T20:37:00.883Z,51.69
2022-08-19T20:42:03.621Z,53.01
2022-08-19T20:47:05.251Z,53.38
2022-08-19T20:52:06.709Z,53.34
2022-08-19T20:57:08.713Z,53.87
2022-08-19T21:02:11.091Z,54.25
2022-08-19T21:07:12.585Z,54.64
2022-08-19T21:12:14.330Z,55.10
2022-08-19T21:17:15.864Z,55.56
2022-08-19T21:22:17.307Z,56.50
2022-08-19T21:27:18.952Z,56.89
2022-08-19T21:32:20.939Z,57.51
2022-08-19T21:37:25.745Z,57.84
2022-08-19T21:42:27.622Z,58.56
2022-08-19T21:47:29.051Z,58.79
2022-08-19T21:52:30.616Z,59.21
2022-08-19T21:57:32.305Z,59.97
2022-08-19T22:02:33.767Z,60.19
2022-08-19T22:07:36.785Z,60.38
2022-08-19T22:12:39.411Z,60.73
2022-08-19T22:17:53.623Z,61.55
2022-08-19T22:22:58.787Z,62.16
2022-08-19T22:28:01.853Z,62.48
2022-08-19T22:33:06.211Z,63.21
2022-08-19T22:38:10.145Z,63.34
2022-08-19T22:43:16.030Z,64.27
2022-08-19T22:48:20.008Z,64.83
2022-08-19T22:53:21.459Z,65.23
2022-08-19T22:58:27.997Z,66.07
2022-08-19T23:03:29.901Z,66.30
2022-08-19T23:08:31.633Z,66.66
2022-08-19T23:13:33.663Z,67.88
2022-08-19T23:18:35.229Z,68.58
2022-08-19T23:23:37.756Z,68.85
2022-08-19T23:28:59.438Z,68.68
2022-08-19T23:34:00.939Z,69.03
2022-08-19T23:39:02.451Z,69.21
2022-08-19T23:44:04.177Z,69.80
2022-08-19T23:49:06.396Z,70.52
2022-08-19T23:54:07.876Z,70.07
2022-08-19T23:59:09.431Z,70.22
